Time;durP1;ratioP1;P1;durP2;ratioP2;P2;SDS_P1;SDS_P2;PMS_P1;PMS_P2;Temp;Humidity;BMP_temperature;BMP_pressure;BME280_temperature;BME280_humidity;BME280_pressure;Samples;Min_cycle;Max_cycle;Signal;HPM_P1;HPM_P2
2022/12/02 05:00:15;;;;;;;59.60;24.90;;;5.20;99.90;;;;;;5928289;23;20083;-64
2022/12/02 05:02:41;;;;;;;51.60;21.02;;;5.20;99.90;;;;;;4898547;29;20545;-68
2022/12/02 05:05:07;;;;;;;55.53;22.40;;;5.20;99.90;;;;;;4897782;29;20048;-68
2022/12/02 05:07:32;;;;;;;48.45;21.30;;;5.20;99.90;;;;;;4898515;29;20032;-67
2022/12/02 05:09:58;;;;;;;50.93;21.70;;;5.20;99.90;;;;;;4898473;29;20479;-66
2022/12/02 05:12:23;;;;;;;54.37;21.97;;;5.20;99.90;;;;;;4898142;29;20040;-66
2022/12/02 05:14:50;;;;;;;56.73;21.70;;;5.30;99.90;;;;;;4897538;29;20092;-62
2022/12/02 05:17:16;;;;;;;53.67;21.50;;;5.30;99.90;;;;;;4898562;29;20056;-62
2022/12/02 05:19:42;;;;;;;49.83;22.47;;;5.40;99.90;;;;;;4898688;29;20080;-66
2022/12/02 05:22:08;;;;;;;52.20;21.95;;;5.50;99.90;;;;;;4896662;29;20476;-66
2022/12/02 05:24:34;;;;;;;58.75;22.35;;;5.40;99.90;;;;;;4900001;29;20116;-69
2022/12/02 05:26:59;;;;;;;46.17;19.80;;;5.40;99.90;;;;;;4901452;29;20413;-69
2022/12/02 05:29:25;;;;;;;57.17;22.40;;;5.30;99.90;;;;;;4902553;29;20393;-68
2022/12/02 05:31:51;;;;;;;53.23;21.77;;;5.20;99.90;;;;;;4902108;29;20033;-65
2022/12/02 05:34:17;;;;;;;59.03;22.87;;;5.40;99.90;;;;;;4899680;29;20333;-67
2022/12/02 05:36:42;;;;;;;52.88;21.52;;;5.50;99.90;;;;;;4903302;29;20072;-66
2022/12/02 05:39:08;;;;;;;53.57;22.33;;;5.50;99.90;;;;;;4882927;29;20044;-65
2022/12/02 05:41:33;;;;;;;48.60;22.03;;;5.50;99.90;;;;;;4882645;29;20025;-67
2022/12/02 05:44:12;;;;;;;55.03;22.27;;;5.50;99.90;;;;;;4891873;29;20032;-70
2022/12/02 05:46:37;;;;;;;55.92;23.77;;;5.50;99.90;;;;;;4892512;29;20490;-70
2022/12/02 05:49:13;;;;;;;56.97;22.53;;;5.40;99.90;;;;;;4900779;29;20108;-69
2022/12/02 05:51:38;;;;;;;51.50;21.85;;;5.20;99.90;;;;;;4899827;29;20033;-70
2022/12/02 05:54:05;;;;;;;50.70;21.90;;;5.10;99.90;;;;;;4897383;29;20040;-70
2022/12/02 05:56:31;;;;;;;56.63;23.63;;;5.20;99.90;;;;;;4896642;29;20028;-67
2022/12/02 05:59:01;;;;;;;51.20;20.70;;;5.20;99.90;;;;;;4900984;29;20061;-68
2022/12/02 06:01:34;;;;;;;45.38;19.45;;;5.30;99.90;;;;;;4899533;29;20036;-68
2022/12/02 06:03:59;;;;;;;49.28;20.48;;;5.40;99.90;;;;;;4900157;29;20137;-68
2022/12/02 06:06:29;;;;;;;50.10;20.70;;;5.40;99.90;;;;;;4900628;29;20168;-68
2022/12/02 06:08:55;;;;;;;57.00;23.13;;;5.30;99.90;;;;;;4900316;29;20025;-69
2022/12/02 06:11:28;;;;;;;49.17;19.85;;;5.20;99.90;;;;;;4900897;29;20029;-68
2022/12/02 06:14:00;;;;;;;46.90;20.38;;;5.20;99.90;;;;;;4899788;29;20028;-70
2022/12/02 06:16:29;;;;;;;50.70;21.42;;;5.30;99.90;;;;;;4900469;29;20099;-70
2022/12/02 06:18:55;;;;;;;53.92;21.50;;;5.30;99.90;;;;;;4901286;29;20028;-68
2022/12/02 06:21:21;;;;;;;49.85;21.08;;;5.30;99.90;;;;;;4900406;29;20382;-68
2022/12/02 06:23:51;;;;;;;;;;;5.20;99.90;;;;;;4901050;29;20120;-66
2022/12/02 06:26:19;;;;;;;48.20;21.15;;;5.10;99.90;;;;;;4900844;29;19914;-66
2022/12/02 06:28:48;;;;;;;49.72;20.65;;;5.10;99.90;;;;;;4901460;29;20433;-66
2022/12/02 06:31:16;;;;;;;51.35;22.00;;;5.10;99.90;;;;;;4902131;29;20024;-66
2022/12/02 06:33:43;;;;;;;47.83;21.45;;;5.10;99.90;;;;;;4901872;29;20059;-67
2022/12/02 06:36:13;;;;;;;52.47;20.60;;;5.20;99.90;;;;;;4902176;29;20195;-67
2022/12/02 06:38:52;;;;;;;54.33;21.88;;;5.30;99.90;;;;;;4901244;29;20032;-67
2022/12/02 06:41:20;;;;;;;47.60;20.88;;;5.20;99.90;;;;;;4901231;29;20025;-67
2022/12/02 06:45:03;;;;;;;51.22;21.08;;;5.10;99.90;;;;;;4901204;29;20025;-66
2022/12/02 06:46:33;;;;;;;56.35;21.05;;;5.20;99.90;;;;;;4900671;29;20036;-67
2022/12/02 06:49:00;;;;;;;54.30;21.85;;;5.10;99.90;;;;;;4901664;29;20043;-67
2022/12/02 06:51:26;;;;;;;;;;;5.30;99.90;;;;;;4900194;29;20025;-66
2022/12/02 06:53:51;;;;;;;54.17;20.23;;;5.30;99.90;;;;;;4899837;29;20432;-66
2022/12/02 06:56:38;;;;;;;48.80;19.47;;;5.30;99.90;;;;;;4900605;29;20362;-67
2022/12/02 06:59:05;;;;;;;55.55;21.95;;;5.20;99.90;;;;;;4900564;29;20051;-67
2022/12/02 07:01:33;;;;;;;48.35;20.05;;;5.30;99.90;;;;;;4899815;29;20039;-67
2022/12/02 07:04:30;;;;;;;53.20;20.95;;;5.30;99.90;;;;;;4900332;29;20466;-68
2022/12/02 07:07:22;;;;;;;52.47;20.90;;;5.20;99.90;;;;;;4898292;29;20067;-67
2022/12/02 07:09:58;;;;;;;51.03;20.77;;;5.10;99.90;;;;;;4899486;29;20450;-67
2022/12/02 07:12:35;;;;;;;50.70;19.38;;;5.20;99.90;;;;;;4900049;29;20089;-68
2022/12/02 07:15:31;;;;;;;53.00;20.05;;;5.30;99.90;;;;;;4899729;29;20033;-67
2022/12/02 07:18:00;;;;;;;54.40;21.10;;;5.40;99.90;;;;;;4899585;29;20064;-67
2022/12/02 07:20:34;;;;;;;52.50;20.77;;;5.40;99.90;;;;;;4899551;29;20363;-67
2022/12/02 07:23:10;;;;;;;52.97;20.98;;;5.40;99.90;;;;;;4897713;29;20401;-68
2022/12/02 07:25:41;;;;;;;51.67;21.10;;;5.30;99.90;;;;;;4899982;29;20032;-67
2022/12/02 07:28:31;;;;;;;52.70;20.15;;;5.20;99.90;;;;;;4900002;29;20477;-66
2022/12/02 07:31:17;;;;;;;53.28;21.42;;;5.20;99.90;;;;;;4899555;29;20083;-68
2022/12/02 07:33:43;;;;;;;52.17;21.02;;;5.30;99.90;;;;;;4895571;29;20048;-65
2022/12/02 07:36:08;;;;;;;47.47;20.20;;;5.30;99.90;;;;;;4898866;29;20029;-66
2022/12/02 07:38:35;;;;;;;50.33;20.73;;;5.20;99.90;;;;;;4898650;29;20036;-65
2022/12/02 07:41:01;;;;;;;;;;;5.30;99.90;;;;;;4898215;29;20028;-68
2022/12/02 07:43:26;;;;;;;51.40;21.30;;;5.30;99.90;;;;;;4897733;29;19907;-67
2022/12/02 07:45:52;;;;;;;48.80;20.30;;;5.20;99.90;;;;;;4897800;29;20025;-66
2022/12/02 07:48:17;;;;;;;52.40;20.50;;;5.10;99.90;;;;;;4898526;29;20096;-68
2022/12/02 07:50:43;;;;;;;47.80;19.70;;;5.10;99.90;;;;;;4889698;29;20041;-68
2022/12/02 07:53:08;;;;;;;52.97;21.43;;;5.00;99.90;;;;;;4894355;29;20121;-67
2022/12/02 07:55:34;;;;;;;54.60;21.90;;;4.90;99.90;;;;;;4880451;29;20044;-68
2022/12/02 07:58:00;;;;;;;54.60;20.13;;;4.90;99.90;;;;;;4880106;29;20044;-68
2022/12/02 08:00:25;;;;;;;51.43;21.00;;;4.80;99.90;;;;;;4880506;29;20077;-68
2022/12/02 08:02:51;;;;;;;52.00;20.77;;;4.90;99.90;;;;;;4882651;29;20041;-68
2022/12/02 08:05:17;;;;;;;52.43;21.33;;;5.10;99.90;;;;;;4899174;29;20795;-68
2022/12/02 08:07:43;;;;;;;49.63;21.55;;;5.10;99.90;;;;;;4904735;29;20355;-67
2022/12/02 08:10:09;;;;;;;49.83;20.53;;;5.10;99.90;;;;;;4910481;29;20036;-66
2022/12/02 08:12:34;;;;;;;51.63;21.35;;;5.00;99.90;;;;;;4888886;29;20065;-66
2022/12/02 08:15:00;;;;;;;53.47;21.77;;;5.00;99.90;;;;;;4898167;29;20029;-66
2022/12/02 08:17:26;;;;;;;56.90;23.10;;;5.00;99.90;;;;;;4886321;29;20095;-67
2022/12/02 08:19:51;;;;;;;57.40;21.50;;;5.00;99.90;;;;;;4896588;29;20040;-66
2022/12/02 08:22:17;;;;;;;52.27;20.83;;;5.10;99.90;;;;;;4897497;29;20100;-67
2022/12/02 08:24:42;;;;;;;58.17;22.53;;;5.10;99.90;;;;;;4896290;29;20080;-66
2022/12/02 08:27:08;;;;;;;56.93;22.10;;;5.10;99.90;;;;;;4897246;29;20055;-66
2022/12/02 08:29:33;;;;;;;54.43;24.97;;;5.10;99.90;;;;;;4896526;29;20458;-66
2022/12/02 08:31:59;;;;;;;52.07;22.30;;;5.00;99.90;;;;;;4897611;29;20312;-66
2022/12/02 08:34:25;;;;;;;52.20;22.90;;;5.20;99.90;;;;;;4897702;29;20438;-67
2022/12/02 08:36:50;;;;;;;52.70;20.80;;;5.10;99.90;;;;;;4897283;29;20417;-67
2022/12/02 08:39:16;;;;;;;48.57;20.77;;;5.10;99.90;;;;;;4896835;29;20500;-67
2022/12/02 08:41:42;;;;;;;52.65;22.38;;;5.20;99.90;;;;;;4898102;29;20033;-67
2022/12/02 08:44:07;;;;;;;51.70;21.43;;;5.30;99.90;;;;;;4898288;29;20031;-67
2022/12/02 08:46:33;;;;;;;51.40;21.00;;;5.30;99.90;;;;;;4896755;29;20028;-68
2022/12/02 08:48:59;;;;;;;52.10;21.20;;;5.10;99.90;;;;;;4896865;29;20024;-68
2022/12/02 08:51:25;;;;;;;49.00;20.47;;;5.10;99.90;;;;;;4898054;29;20119;-66
2022/12/02 08:53:50;;;;;;;52.70;21.30;;;5.10;99.90;;;;;;4898266;29;20060;-67
2022/12/02 08:56:16;;;;;;;50.13;20.43;;;5.20;99.90;;;;;;4898567;29;20323;-67
2022/12/02 08:58:42;;;;;;;48.63;20.40;;;5.40;99.90;;;;;;4898420;29;20110;-66
2022/12/02 09:01:07;;;;;;;53.00;21.17;;;5.50;99.90;;;;;;4900153;29;20509;-67
2022/12/02 09:03:33;;;;;;;56.40;22.40;;;5.50;99.90;;;;;;4901869;29;20541;-67
2022/12/02 09:05:59;;;;;;;46.10;19.65;;;5.40;99.90;;;;;;4902250;29;20025;-67
2022/12/02 09:08:25;;;;;;;50.33;20.52;;;5.40;99.90;;;;;;4901527;29;20119;-67
2022/12/02 09:10:51;;;;;;;48.83;20.57;;;5.40;99.90;;;;;;4901799;29;20036;-67
2022/12/02 09:13:16;;;;;;;45.38;20.10;;;5.40;99.90;;;;;;4902632;29;20096;-67
2022/12/02 09:15:42;;;;;;;48.83;20.40;;;5.40;99.90;;;;;;4902494;29;20401;-67
2022/12/02 09:18:08;;;;;;;50.67;20.47;;;5.30;99.90;;;;;;4901837;29;20024;-66
2022/12/02 09:20:33;;;;;;;52.83;20.43;;;5.30;99.90;;;;;;4902415;29;20481;-67
2022/12/02 09:23:00;;;;;;;79.80;32.07;;;5.30;99.90;;;;;;4901622;29;20041;-67
2022/12/02 09:25:26;;;;;;;50.60;21.13;;;5.40;99.90;;;;;;4901828;29;20025;-67
2022/12/02 09:27:52;;;;;;;46.42;19.85;;;5.40;99.90;;;;;;4901650;29;20064;-66
2022/12/02 09:30:17;;;;;;;48.77;20.47;;;5.40;99.90;;;;;;4901356;29;20060;-67
2022/12/02 09:32:43;;;;;;;53.17;21.47;;;5.50;99.90;;;;;;4900063;29;20037;-67
2022/12/02 09:35:09;;;;;;;51.73;20.47;;;5.40;99.90;;;;;;4900299;29;20087;-67
2022/12/02 09:37:34;;;;;;;49.93;21.07;;;5.30;99.90;;;;;;4901135;29;20335;-66
2022/12/02 09:40:00;;;;;;;108.63;40.00;;;5.30;99.90;;;;;;4901356;29;20116;-67
2022/12/02 09:42:27;;;;;;;54.10;22.33;;;5.30;99.90;;;;;;4901118;29;20024;-67
2022/12/02 09:44:52;;;;;;;;;;;5.30;99.90;;;;;;4901476;29;20301;-67
2022/12/02 09:47:19;;;;;;;49.20;21.17;;;5.20;99.90;;;;;;4901237;29;19959;-68
2022/12/02 09:49:44;;;;;;;;;;;5.30;99.90;;;;;;4900185;29;20397;-67
2022/12/02 09:52:14;;;;;;;47.33;21.70;;;5.30;99.90;;;;;;4900751;29;19935;-66
2022/12/02 09:54:41;;;;;;;53.40;20.42;;;5.20;99.90;;;;;;4901055;29;20446;-66
2022/12/02 09:57:15;;;;;;;52.72;22.00;;;5.30;99.90;;;;;;4900850;29;20089;-66
2022/12/02 09:59:42;;;;;;;54.60;22.67;;;5.20;99.90;;;;;;4901061;29;20487;-66
2022/12/02 10:02:27;;;;;;;56.92;22.42;;;5.20;99.90;;;;;;4899567;29;20375;-66
2022/12/02 10:04:57;;;;;;;56.75;22.55;;;5.20;99.90;;;;;;4899608;29;20463;-66
2022/12/02 10:07:22;;;;;;;51.80;21.23;;;5.30;99.90;;;;;;4900585;29;20037;-67
2022/12/02 10:09:48;;;;;;;55.17;21.97;;;5.30;99.90;;;;;;4901125;29;20084;-67
2022/12/02 10:12:14;;;;;;;50.53;22.07;;;5.30;99.90;;;;;;4898722;29;20029;-67
2022/12/02 10:14:43;;;;;;;50.92;20.58;;;5.30;99.90;;;;;;4900694;29;20032;-68
2022/12/02 10:17:18;;;;;;;51.00;21.77;;;5.40;99.90;;;;;;4900675;29;20068;-67
2022/12/02 10:19:45;;;;;;;51.70;20.92;;;5.40;99.90;;;;;;4899593;29;20590;-66
2022/12/02 10:22:15;;;;;;;49.35;21.52;;;5.50;99.90;;;;;;4900235;29;20534;-66
2022/12/02 10:24:41;;;;;;;54.05;22.35;;;5.30;99.90;;;;;;4893843;29;20546;-66
2022/12/02 10:27:06;;;;;;;55.13;20.93;;;5.40;99.90;;;;;;4897274;29;20040;-65
2022/12/02 10:29:33;;;;;;;52.40;21.33;;;5.40;99.90;;;;;;4898869;29;20032;-66
2022/12/02 10:32:01;;;;;;;45.72;19.77;;;5.50;99.90;;;;;;4899934;29;20048;-66
2022/12/02 10:34:29;;;;;;;51.65;21.50;;;5.50;99.90;;;;;;4900248;29;20137;-65
2022/12/02 10:36:55;;;;;;;47.85;20.10;;;5.40;99.90;;;;;;4899845;29;20040;-66
2022/12/02 10:39:33;;;;;;;57.83;21.30;;;5.30;99.90;;;;;;4901533;29;20389;-66
2022/12/02 10:42:07;;;;;;;47.33;20.70;;;5.30;99.90;;;;;;4900699;29;20119;-66
2022/12/02 10:44:41;;;;;;;47.17;20.27;;;5.30;99.90;;;;;;4901956;29;20029;-67
2022/12/02 10:47:13;;;;;;;53.10;21.92;;;5.40;99.90;;;;;;4900047;29;20025;-66
2022/12/02 10:49:44;;;;;;;53.45;21.45;;;5.40;99.90;;;;;;4900119;29;20036;-66
2022/12/02 10:52:11;;;;;;;49.47;21.83;;;5.30;99.90;;;;;;4898268;29;20039;-66
2022/12/02 10:54:42;;;;;;;52.67;20.88;;;5.20;99.90;;;;;;4900113;29;20055;-66
2022/12/02 10:57:14;;;;;;;46.50;20.75;;;5.20;99.90;;;;;;4900273;29;20446;-66
2022/12/02 10:59:40;;;;;;;52.45;22.17;;;5.20;99.90;;;;;;4898653;29;20398;-66
2022/12/02 11:02:18;;;;;;;53.97;21.57;;;5.30;99.90;;;;;;4899983;29;20036;-66
2022/12/02 11:04:44;;;;;;;57.38;22.23;;;5.30;99.90;;;;;;4904858;29;20059;-66
2022/12/02 11:07:15;;;;;;;54.33;22.73;;;5.40;99.90;;;;;;4901715;29;20067;-67
2022/12/02 11:09:45;;;;;;;56.13;22.38;;;5.50;99.90;;;;;;4892409;29;20032;-65
2022/12/02 11:12:29;;;;;;;61.55;24.83;;;5.40;99.90;;;;;;4884456;29;20397;-66
2022/12/02 11:14:55;;;;;;;51.95;21.60;;;5.60;99.90;;;;;;4915464;23;20045;-72
2022/12/02 11:17:45;;;;;;;49.23;19.23;;;5.50;99.90;;;;;;4905985;29;20029;-72
2022/12/02 11:20:30;;;;;;;53.15;20.25;;;5.50;99.90;;;;;;4901028;29;20024;-72
2022/12/02 11:22:58;;;;;;;42.72;18.42;;;5.50;99.90;;;;;;4901366;29;20052;-72
2022/12/02 11:25:42;;;;;;;47.28;19.58;;;5.50;99.90;;;;;;4899699;29;20474;-70
2022/12/02 11:28:17;;;;;;;44.60;19.23;;;5.50;99.90;;;;;;4900780;29;20032;-71
2022/12/02 11:30:44;;;;;;;46.95;19.23;;;5.50;99.90;;;;;;4898789;29;20036;-70
2022/12/02 11:33:11;;;;;;;40.25;18.45;;;5.50;99.90;;;;;;4898784;29;20029;-70
2022/12/02 11:35:55;;;;;;;;;;;5.60;99.90;;;;;;4900751;29;20028;-70
2022/12/02 11:38:24;;;;;;;41.63;16.55;;;5.70;99.90;;;;;;4898309;29;19915;-71
2022/12/02 11:40:50;;;;;;;41.80;18.15;;;5.80;99.90;;;;;;4900115;29;20497;-71
2022/12/02 11:43:43;;;;;;;41.57;16.97;;;5.70;99.90;;;;;;4898744;29;20021;-70
2022/12/02 11:46:09;;;;;;;36.75;16.65;;;5.70;99.90;;;;;;4898018;29;20035;-71
2022/12/02 11:48:53;;;;;;;36.22;16.35;;;5.70;99.90;;;;;;4898555;29;20052;-70
2022/12/02 11:51:40;;;;;;;40.78;16.95;;;5.80;99.90;;;;;;4898733;29;20040;-70
2022/12/02 11:54:13;;;;;;;33.95;16.02;;;5.80;99.90;;;;;;4888096;29;20115;-69
2022/12/02 11:56:39;;;;;;;34.25;15.95;;;5.70;99.90;;;;;;4895565;29;20076;-70
2022/12/02 11:59:24;;;;;;;37.42;16.35;;;5.60;99.90;;;;;;4880697;29;20053;-70
2022/12/02 12:01:50;;;;;;;46.70;19.95;;;5.60;99.90;;;;;;4895285;29;20398;-69
2022/12/02 12:04:25;;;;;;;33.90;15.43;;;5.60;99.90;;;;;;4880464;29;20024;-70
2022/12/02 12:06:59;;;;;;;35.30;15.57;;;5.50;99.90;;;;;;4894764;29;20084;-70
2022/12/02 12:09:29;;;;;;;30.80;14.32;;;5.60;99.90;;;;;;4894955;29;20040;-69
2022/12/02 12:12:17;;;;;;;31.35;14.52;;;5.70;99.90;;;;;;4895140;29;20033;-68
2022/12/02 12:14:52;;;;;;;;;;;5.80;99.90;;;;;;4885638;29;20040;-69
2022/12/02 12:17:29;;;;;;;32.75;14.23;;;5.70;99.90;;;;;;4899916;29;20364;-69
2022/12/02 12:19:55;;;;;;;34.13;15.55;;;5.70;99.90;;;;;;4899757;29;20076;-69
2022/12/02 12:22:28;;;;;;;32.83;15.13;;;5.70;99.90;;;;;;4900101;29;20033;-69
2022/12/02 12:24:54;;;;;;;36.00;14.82;;;5.80;99.90;;;;;;4900027;29;20025;-69
2022/12/02 12:27:36;;;;;;;28.65;13.65;;;5.70;99.90;;;;;;4894529;29;20032;-69
2022/12/02 12:30:05;;;;;;;36.42;16.00;;;5.80;99.90;;;;;;4878758;29;20498;-69
2022/12/02 12:32:31;;;;;;;36.55;16.65;;;5.80;99.90;;;;;;4879260;29;20040;-69
2022/12/02 12:34:56;;;;;;;36.25;16.50;;;5.70;99.90;;;;;;4894498;29;20033;-69
2022/12/02 12:37:22;;;;;;;31.40;14.57;;;5.60;99.90;;;;;;4880269;29;20037;-69
2022/12/02 12:39:47;;;;;;;29.27;14.73;;;5.60;99.90;;;;;;4878662;29;20032;-69
2022/12/02 12:42:13;;;;;;;32.73;14.93;;;5.80;99.90;;;;;;4878790;29;20092;-69
2022/12/02 12:44:39;;;;;;;32.80;15.60;;;5.70;99.90;;;;;;4883153;29;20052;-69
2022/12/02 12:47:06;;;;;;;37.57;17.10;;;5.60;99.90;;;;;;4898674;29;20038;-69
2022/12/02 12:49:33;;;;;;;32.33;15.80;;;5.70;99.90;;;;;;4897298;29;20500;-68
2022/12/02 12:51:58;;;;;;;35.42;16.30;;;5.70;99.90;;;;;;4898751;29;20059;-69
2022/12/02 12:54:24;;;;;;;35.67;16.42;;;5.70;99.90;;;;;;4897660;29;20076;-69
2022/12/02 12:56:50;;;;;;;40.37;17.57;;;5.70;99.90;;;;;;4897446;29;20127;-69
2022/12/02 12:59:15;;;;;;;36.03;16.13;;;5.60;99.90;;;;;;4897586;29;20020;-69
2022/12/02 13:01:42;;;;;;;39.30;17.80;;;5.50;99.90;;;;;;4898642;29;20033;-69
2022/12/02 13:04:08;;;;;;;39.10;17.30;;;5.40;99.90;;;;;;4898932;29;20021;-69
2022/12/02 13:06:37;;;;;;;37.50;17.03;;;5.40;99.90;;;;;;4897319;29;20075;-69
2022/12/02 13:09:04;;;;;;;41.67;17.27;;;5.40;99.90;;;;;;4898928;29;20025;-69
2022/12/02 13:11:29;;;;;;;33.30;17.30;;;5.40;99.90;;;;;;4897766;29;20080;-69
2022/12/02 13:13:55;;;;;;;35.30;15.70;;;5.40;99.90;;;;;;4898879;29;20029;-70
2022/12/02 13:16:20;;;;;;;37.13;16.43;;;5.40;99.90;;;;;;4898345;29;20111;-69
2022/12/02 13:18:46;;;;;;;33.23;15.07;;;5.50;99.90;;;;;;4898820;29;20032;-69
2022/12/02 13:21:12;;;;;;;36.27;15.93;;;5.40;99.90;;;;;;4897599;29;20033;-70
2022/12/02 13:23:37;;;;;;;33.47;15.03;;;5.40;99.90;;;;;;4897622;29;20064;-69
2022/12/02 13:26:03;;;;;;;34.03;14.70;;;5.40;99.90;;;;;;4897479;29;20470;-71
2022/12/02 13:28:28;;;;;;;33.90;16.03;;;5.30;99.90;;;;;;4897798;29;20389;-69
2022/12/02 13:30:54;;;;;;;32.07;14.67;;;5.30;99.90;;;;;;4897808;29;20044;-70
2022/12/02 13:33:20;;;;;;;28.42;13.95;;;5.30;99.90;;;;;;4899198;29;20494;-69
2022/12/02 13:35:46;;;;;;;34.63;15.47;;;5.30;99.90;;;;;;4898640;29;20064;-70
2022/12/02 13:38:11;;;;;;;34.87;15.30;;;5.30;99.90;;;;;;4898272;29;20442;-69
2022/12/02 13:40:37;;;;;;;31.97;15.30;;;5.40;99.90;;;;;;4898840;29;20032;-68
2022/12/02 13:43:03;;;;;;;30.27;14.67;;;5.40;99.90;;;;;;4897178;29;20035;-71
2022/12/02 13:45:29;;;;;;;27.15;13.13;;;5.40;99.90;;;;;;4896566;29;20035;-68
2022/12/02 13:47:55;;;;;;;;;;;5.30;99.90;;;;;;4899705;29;20124;-70
2022/12/02 13:50:22;;;;;;;23.25;10.32;;;5.10;99.90;;;;;;4902349;29;19946;-69
2022/12/02 13:52:47;;;;;;;;;;;5.00;99.90;;;;;;4899561;29;20040;-69
2022/12/02 13:55:13;;;;;;;21.98;11.00;;;5.00;99.90;;;;;;4898737;29;19960;-69
2022/12/02 13:57:38;;;;;;;19.87;9.60;;;5.00;99.90;;;;;;4900301;29;20032;-68
2022/12/02 14:00:04;;;;;;;18.90;9.40;;;5.00;99.90;;;;;;4901321;29;20075;-70
2022/12/02 14:02:30;;;;;;;19.90;10.38;;;4.90;99.90;;;;;;4901248;29;20048;-76
2022/12/02 14:04:56;;;;;;;20.23;10.10;;;4.90;99.90;;;;;;4900347;29;20043;-72
2022/12/02 14:07:21;;;;;;;22.17;10.53;;;4.80;99.90;;;;;;4900828;29;20032;-68
2022/12/02 14:09:47;;;;;;;22.98;12.02;;;4.80;99.90;;;;;;4901491;29;20116;-67
2022/12/02 14:12:13;;;;;;;20.83;10.60;;;4.80;99.90;;;;;;4901053;29;20044;-74
2022/12/02 14:14:39;;;;;;;22.23;10.73;;;4.80;99.90;;;;;;4901467;29;20512;-70
2022/12/02 14:17:04;;;;;;;20.92;10.63;;;4.80;99.90;;;;;;4900894;29;20115;-68
2022/12/02 14:19:31;;;;;;;23.87;11.13;;;4.90;99.90;;;;;;4900412;29;20104;-69
2022/12/02 14:21:56;;;;;;;;;;;4.80;99.90;;;;;;4900004;29;20028;-69
2022/12/02 14:24:22;;;;;;;23.30;10.95;;;4.80;99.90;;;;;;4899032;29;19911;-69
2022/12/02 14:26:47;;;;;;;24.57;10.83;;;4.80;99.90;;;;;;4899896;29;20502;-69
2022/12/02 14:29:13;;;;;;;17.80;9.77;;;4.80;99.90;;;;;;4899429;29;20116;-69
2022/12/02 14:31:38;;;;;;;18.33;9.17;;;4.80;99.90;;;;;;4901278;29;20157;-70
2022/12/02 14:34:04;;;;;;;19.13;10.07;;;4.90;99.90;;;;;;4899580;29;20036;-70
2022/12/02 14:36:30;;;;;;;16.73;8.90;;;4.80;99.90;;;;;;4899586;29;20025;-70
2022/12/02 14:38:55;;;;;;;19.07;10.07;;;4.90;99.90;;;;;;4899489;29;20032;-69
2022/12/02 14:41:21;;;;;;;16.53;8.30;;;4.80;99.90;;;;;;4901922;29;20020;-72
2022/12/02 14:43:46;;;;;;;18.43;9.10;;;4.90;99.90;;;;;;4903861;29;20398;-70
2022/12/02 14:46:12;;;;;;;15.00;8.57;;;4.80;99.90;;;;;;4903277;29;20475;-70
2022/12/02 14:48:37;;;;;;;16.87;9.37;;;4.80;99.90;;;;;;4902425;29;20088;-72
2022/12/02 14:51:03;;;;;;;18.50;9.20;;;4.80;99.90;;;;;;4900581;29;20028;-72
2022/12/02 14:53:29;;;;;;;14.30;8.90;;;4.80;99.90;;;;;;4901150;29;20037;-71
2022/12/02 14:55:54;;;;;;;17.15;9.45;;;4.90;99.90;;;;;;4900554;29;20386;-73
2022/12/02 14:58:20;;;;;;;15.57;8.23;;;4.90;99.90;;;;;;4901125;29;20092;-70
2022/12/02 15:00:45;;;;;;;13.83;7.73;;;4.80;99.90;;;;;;4900155;29;20043;-77
2022/12/02 15:03:11;;;;;;;14.97;7.90;;;4.90;99.90;;;;;;4901851;29;20093;-77
2022/12/02 15:05:36;;;;;;;16.33;8.07;;;4.90;99.90;;;;;;4900929;29;20155;-76
2022/12/02 15:08:02;;;;;;;14.77;8.97;;;4.70;99.90;;;;;;4899666;29;20043;-75
2022/12/02 15:10:28;;;;;;;13.75;8.32;;;4.70;99.90;;;;;;4901659;29;20096;-77
2022/12/02 15:12:54;;;;;;;13.57;7.77;;;4.70;99.90;;;;;;4902444;29;20032;-76
2022/12/02 15:15:19;;;;;;;13.10;7.30;;;4.60;99.90;;;;;;4901821;29;20439;-78
2022/12/02 15:17:46;;;;;;;17.73;9.25;;;4.60;99.90;;;;;;4902513;29;20140;-77
2022/12/02 15:20:12;;;;;;;12.90;8.30;;;4.60;99.90;;;;;;4898720;29;20045;-75
2022/12/02 15:22:37;;;;;;;14.33;9.00;;;4.60;99.90;;;;;;4909976;29;20039;-75
2022/12/02 15:25:04;;;;;;;14.52;8.35;;;4.60;99.90;;;;;;4902352;29;20442;-77
2022/12/02 15:27:30;;;;;;;16.15;9.00;;;4.60;99.90;;;;;;4909233;29;20036;-75
2022/12/02 15:29:56;;;;;;;13.82;8.00;;;4.60;99.90;;;;;;4898507;29;20470;-73
2022/12/02 15:32:21;;;;;;;14.30;8.53;;;4.60;99.90;;;;;;4897309;29;20035;-74
2022/12/02 15:34:47;;;;;;;14.53;8.77;;;4.50;99.90;;;;;;4907021;29;20131;-74
2022/12/02 15:37:13;;;;;;;12.70;8.00;;;4.40;99.90;;;;;;4898736;29;20032;-74
2022/12/02 15:39:38;;;;;;;14.10;7.73;;;4.50;99.90;;;;;;4899887;29;20031;-74
2022/12/02 15:42:04;;;;;;;11.67;7.77;;;4.40;99.90;;;;;;4898844;29;20039;-75
2022/12/02 15:44:30;;;;;;;13.87;7.90;;;4.40;99.90;;;;;;4898667;29;20029;-74
2022/12/02 15:46:55;;;;;;;12.93;7.72;;;4.40;99.90;;;;;;4899948;29;20052;-73
2022/12/02 15:49:21;;;;;;;12.40;7.47;;;4.50;99.90;;;;;;4898828;29;20475;-72
2022/12/02 15:51:47;;;;;;;15.93;9.90;;;4.50;99.90;;;;;;4899423;29;20097;-70
2022/12/02 15:54:13;;;;;;;13.43;8.00;;;4.50;99.90;;;;;;4898981;29;20037;-71
2022/12/02 15:56:38;;;;;;;14.95;8.20;;;4.40;99.90;;;;;;4899648;29;20037;-71
2022/12/02 15:59:04;;;;;;;14.10;8.17;;;4.40;99.90;;;;;;4896543;29;20033;-70
2022/12/02 16:01:30;;;;;;;14.43;8.07;;;4.40;99.90;;;;;;4899508;29;20479;-74
2022/12/02 16:03:56;;;;;;;13.93;7.57;;;4.40;99.90;;;;;;4898524;29;20419;-74
2022/12/02 16:06:22;;;;;;;14.93;8.47;;;4.40;99.90;;;;;;4892508;29;20512;-74
2022/12/02 16:08:48;;;;;;;17.87;11.03;;;4.30;99.90;;;;;;4879519;29;20040;-72
2022/12/02 16:11:14;;;;;;;12.43;7.53;;;4.30;99.90;;;;;;4894708;29;20072;-72
2022/12/02 16:13:40;;;;;;;14.40;8.27;;;4.30;99.90;;;;;;4894493;29;20037;-71
2022/12/02 16:16:06;;;;;;;17.77;9.45;;;4.30;99.90;;;;;;4897337;29;20517;-71
2022/12/02 16:18:31;;;;;;;14.90;8.65;;;4.30;99.90;;;;;;4897735;29;20041;-71
2022/12/02 16:20:57;;;;;;;17.80;9.73;;;4.30;99.90;;;;;;4915092;29;20042;-71
2022/12/02 16:23:23;;;;;;;14.27;8.23;;;4.30;99.90;;;;;;4916891;29;20047;-71
2022/12/02 16:25:48;;;;;;;15.52;8.75;;;4.40;99.90;;;;;;4904571;29;20021;-71
2022/12/02 16:28:14;;;;;;;14.80;8.60;;;4.30;99.90;;;;;;4891949;29;20060;-71
2022/12/02 16:30:40;;;;;;;14.77;8.97;;;4.30;99.90;;;;;;4889372;29;20043;-69
2022/12/02 16:33:05;;;;;;;14.07;8.50;;;4.20;99.90;;;;;;4887912;29;20032;-70
2022/12/02 16:35:31;;;;;;;14.20;8.60;;;4.20;99.90;;;;;;4897091;29;20028;-70
2022/12/02 16:37:56;;;;;;;13.33;7.83;;;4.30;99.90;;;;;;4899032;29;20112;-70
2022/12/02 16:40:22;;;;;;;16.57;8.97;;;4.30;99.90;;;;;;4897548;29;20024;-68
2022/12/02 16:42:47;;;;;;;13.20;8.17;;;4.20;99.90;;;;;;4897459;29;20028;-70
2022/12/02 16:45:13;;;;;;;15.93;8.97;;;4.30;99.90;;;;;;4893623;29;20124;-71
2022/12/02 16:47:38;;;;;;;17.00;9.80;;;4.30;99.90;;;;;;4897591;29;20398;-70
2022/12/02 16:50:05;;;;;;;17.03;9.00;;;4.30;99.90;;;;;;4898173;29;20111;-69
2022/12/02 16:52:30;;;;;;;17.38;9.70;;;4.30;99.90;;;;;;4895797;29;20393;-71
2022/12/02 16:54:56;;;;;;;17.43;9.17;;;4.20;99.90;;;;;;4896480;29;20088;-70
2022/12/02 16:57:21;;;;;;;17.40;9.23;;;4.30;99.90;;;;;;4895474;29;20032;-71
2022/12/02 16:59:47;;;;;;;18.37;9.53;;;4.30;99.90;;;;;;4893843;29;20176;-71
2022/12/02 17:02:13;;;;;;;14.10;8.80;;;4.30;99.90;;;;;;4888546;29;20031;-70
2022/12/02 17:04:38;;;;;;;17.20;9.33;;;4.30;99.90;;;;;;4877008;29;20025;-72
2022/12/02 17:07:04;;;;;;;19.50;10.80;;;4.30;99.90;;;;;;4889105;29;20124;-71
2022/12/02 17:09:32;;;;;;;19.97;10.17;;;4.30;99.90;;;;;;4897575;29;20442;-71
2022/12/02 17:11:58;;;;;;;17.90;10.27;;;4.10;99.90;;;;;;4898666;29;20044;-71
2022/12/02 17:14:24;;;;;;;18.50;10.50;;;4.10;99.90;;;;;;4897130;29;20036;-73
2022/12/02 17:16:49;;;;;;;19.10;10.00;;;4.10;99.90;;;;;;4897133;29;20446;-70
2022/12/02 17:19:15;;;;;;;18.77;9.57;;;4.10;99.90;;;;;;4898669;29;20103;-70
2022/12/02 17:21:40;;;;;;;20.13;10.67;;;4.10;99.90;;;;;;4899078;29;20139;-70
2022/12/02 17:24:06;;;;;;;18.80;11.07;;;4.10;99.90;;;;;;4901911;29;20028;-69
2022/12/02 17:26:32;;;;;;;19.48;10.65;;;4.00;99.90;;;;;;4902208;29;20108;-69
2022/12/02 17:28:58;;;;;;;16.83;9.87;;;4.00;99.90;;;;;;4900999;29;20516;-68
2022/12/02 17:31:23;;;;;;;18.53;10.73;;;4.00;99.90;;;;;;4900696;29;20029;-69
2022/12/02 17:33:49;;;;;;;21.20;10.70;;;3.90;99.90;;;;;;4902301;29;20025;-70
2022/12/02 17:36:15;;;;;;;17.53;10.20;;;4.00;99.90;;;;;;4902166;29;20032;-69
2022/12/02 17:38:52;;;;;;;20.83;11.35;;;4.00;99.90;;;;;;4900655;29;20029;-69
2022/12/02 17:41:22;;;;;;;22.80;11.77;;;4.00;99.90;;;;;;4901502;29;20037;-69
2022/12/02 17:43:48;;;;;;;18.73;10.45;;;4.00;99.90;;;;;;4903585;29;20033;-71
2022/12/02 17:46:15;;;;;;;17.73;9.60;;;3.90;99.90;;;;;;4902971;29;20375;-70